sensor_id;sensor_type;location;lat;lon;timestamp;P1;durP1;ratioP1;P2;durP2;ratioP2
16460;SDS011;8341;42.048;24.650;2023-06-22T00:02:26;7.22;;;6.57;;
16460;SDS011;8341;42.048;24.650;2023-06-22T00:04:52;8.10;;;7.25;;
16460;SDS011;8341;42.048;24.650;2023-06-22T00:07:20;8.20;;;6.90;;
16460;SDS011;8341;42.048;24.650;2023-06-22T00:09:47;10.20;;;7.20;;
16460;SDS011;8341;42.048;24.650;2023-06-22T00:12:14;8.25;;;7.45;;
16460;SDS011;8341;42.048;24.650;2023-06-22T00:14:41;8.25;;;7.25;;
16460;SDS011;8341;42.048;24.650;2023-06-22T00:17:07;8.13;;;7.43;;
16460;SDS011;8341;42.048;24.650;2023-06-22T00:19:34;7.72;;;7.03;;
16460;SDS011;8341;42.048;24.650;2023-06-22T00:22:01;8.15;;;7.35;;
16460;SDS011;8341;42.048;24.650;2023-06-22T00:24:29;9.60;;;7.43;;
16460;SDS011;8341;42.048;24.650;2023-06-22T00:26:56;8.07;;;7.28;;
16460;SDS011;8341;42.048;24.650;2023-06-22T00:29:23;7.68;;;7.07;;
16460;SDS011;8341;42.048;24.650;2023-06-22T00:31:50;7.80;;;7.10;;
16460;SDS011;8341;42.048;24.650;2023-06-22T00:34:17;7.47;;;6.85;;
16460;SDS011;8341;42.048;24.650;2023-06-22T00:36:43;7.57;;;6.88;;
16460;SDS011;8341;42.048;24.650;2023-06-22T00:39:10;7.90;;;7.20;;
16460;SDS011;8341;42.048;24.650;2023-06-22T00:41:38;8.13;;;7.43;;
16460;SDS011;8341;42.048;24.650;2023-06-22T00:44:05;7.70;;;7.00;;
16460;SDS011;8341;42.048;24.650;2023-06-22T00:46:33;8.77;;;7.93;;
16460;SDS011;8341;42.048;24.650;2023-06-22T00:49:00;7.82;;;7.13;;
16460;SDS011;8341;42.048;24.650;2023-06-22T00:51:30;8.82;;;8.00;;
16460;SDS011;8341;42.048;24.650;2023-06-22T00:53:57;9.18;;;8.27;;
16460;SDS011;8341;42.048;24.650;2023-06-22T00:56:23;9.73;;;7.88;;
16460;SDS011;8341;42.048;24.650;2023-06-22T00:58:52;8.65;;;7.65;;
16460;SDS011;8341;42.048;24.650;2023-06-22T01:01:19;8.25;;;7.47;;
16460;SDS011;8341;42.048;24.650;2023-06-22T01:03:48;8.32;;;7.63;;
16460;SDS011;8341;42.048;24.650;2023-06-22T01:06:18;9.73;;;7.80;;
16460;SDS011;8341;42.048;24.650;2023-06-22T01:08:54;9.18;;;8.38;;
16460;SDS011;8341;42.048;24.650;2023-06-22T01:11:28;8.73;;;8.02;;
16460;SDS011;8341;42.048;24.650;2023-06-22T01:14:04;7.97;;;7.22;;
16460;SDS011;8341;42.048;24.650;2023-06-22T01:16:38;7.75;;;7.15;;
16460;SDS011;8341;42.048;24.650;2023-06-22T01:19:09;8.45;;;7.40;;
16460;SDS011;8341;42.048;24.650;2023-06-22T01:21:51;9.00;;;8.02;;
16460;SDS011;8341;42.048;24.650;2023-06-22T01:24:22;9.27;;;8.40;;
16460;SDS011;8341;42.048;24.650;2023-06-22T01:26:54;9.18;;;8.27;;
16460;SDS011;8341;42.048;24.650;2023-06-22T01:29:28;8.90;;;8.10;;
16460;SDS011;8341;42.048;24.650;2023-06-22T01:31:56;9.05;;;8.25;;
16460;SDS011;8341;42.048;24.650;2023-06-22T01:34:25;9.50;;;8.60;;
16460;SDS011;8341;42.048;24.650;2023-06-22T01:36:53;9.15;;;8.25;;
16460;SDS011;8341;42.048;24.650;2023-06-22T01:39:21;9.50;;;8.40;;
16460;SDS011;8341;42.048;24.650;2023-06-22T01:41:48;9.27;;;8.38;;
16460;SDS011;8341;42.048;24.650;2023-06-22T01:44:16;9.32;;;8.43;;
16460;SDS011;8341;42.048;24.650;2023-06-22T01:46:45;9.00;;;8.18;;
16460;SDS011;8341;42.048;24.650;2023-06-22T01:49:13;9.52;;;8.60;;
16460;SDS011;8341;42.048;24.650;2023-06-22T01:51:41;8.98;;;8.02;;
16460;SDS011;8341;42.048;24.650;2023-06-22T01:54:08;8.77;;;7.85;;
16460;SDS011;8341;42.048;24.650;2023-06-22T01:56:35;7.75;;;7.03;;
16460;SDS011;8341;42.048;24.650;2023-06-22T01:59:04;8.75;;;7.88;;
16460;SDS011;8341;42.048;24.650;2023-06-22T02:01:37;11.77;;;8.32;;
16460;SDS011;8341;42.048;24.650;2023-06-22T02:04:13;8.50;;;7.80;;
16460;SDS011;8341;42.048;24.650;2023-06-22T02:06:49;8.80;;;8.00;;
16460;SDS011;8341;42.048;24.650;2023-06-22T02:09:20;9.13;;;8.23;;
16460;SDS011;8341;42.048;24.650;2023-06-22T02:11:48;9.13;;;7.93;;
16460;SDS011;8341;42.048;24.650;2023-06-22T02:14:20;9.27;;;8.48;;
16460;SDS011;8341;42.048;24.650;2023-06-22T02:16:48;10.05;;;8.65;;
16460;SDS011;8341;42.048;24.650;2023-06-22T02:19:17;8.90;;;8.00;;
16460;SDS011;8341;42.048;24.650;2023-06-22T02:21:49;10.45;;;7.93;;
16460;SDS011;8341;42.048;24.650;2023-06-22T02:24:16;10.73;;;8.65;;
16460;SDS011;8341;42.048;24.650;2023-06-22T02:26:43;9.55;;;8.55;;
16460;SDS011;8341;42.048;24.650;2023-06-22T02:29:11;8.57;;;7.78;;
16460;SDS011;8341;42.048;24.650;2023-06-22T02:31:37;8.85;;;7.97;;
16460;SDS011;8341;42.048;24.650;2023-06-22T02:34:04;8.63;;;7.93;;
16460;SDS011;8341;42.048;24.650;2023-06-22T02:36:32;9.10;;;8.05;;
16460;SDS011;8341;42.048;24.650;2023-06-22T02:38:59;9.32;;;8.10;;
16460;SDS011;8341;42.048;24.650;2023-06-22T02:41:28;10.48;;;8.55;;
16460;SDS011;8341;42.048;24.650;2023-06-22T02:43:55;12.85;;;11.57;;
16460;SDS011;8341;42.048;24.650;2023-06-22T02:46:22;12.23;;;10.32;;
16460;SDS011;8341;42.048;24.650;2023-06-22T02:48:49;11.18;;;9.95;;
16460;SDS011;8341;42.048;24.650;2023-06-22T02:51:16;10.57;;;9.57;;
16460;SDS011;8341;42.048;24.650;2023-06-22T02:53:44;10.30;;;9.30;;
16460;SDS011;8341;42.048;24.650;2023-06-22T02:56:11;10.18;;;8.50;;
16460;SDS011;8341;42.048;24.650;2023-06-22T02:58:38;8.90;;;8.00;;
16460;SDS011;8341;42.048;24.650;2023-06-22T03:01:04;11.35;;;9.00;;
16460;SDS011;8341;42.048;24.650;2023-06-22T03:03:31;8.93;;;8.00;;
16460;SDS011;8341;42.048;24.650;2023-06-22T03:05:58;9.70;;;8.80;;
16460;SDS011;8341;42.048;24.650;2023-06-22T03:08:26;9.40;;;8.50;;
16460;SDS011;8341;42.048;24.650;2023-06-22T03:10:55;15.85;;;12.68;;
16460;SDS011;8341;42.048;24.650;2023-06-22T03:13:22;10.68;;;9.65;;
16460;SDS011;8341;42.048;24.650;2023-06-22T03:15:48;10.57;;;9.48;;
16460;SDS011;8341;42.048;24.650;2023-06-22T03:18:15;10.07;;;9.15;;
16460;SDS011;8341;42.048;24.650;2023-06-22T03:20:42;9.13;;;8.32;;
16460;SDS011;8341;42.048;24.650;2023-06-22T03:23:09;9.30;;;8.32;;
16460;SDS011;8341;42.048;24.650;2023-06-22T03:25:35;14.75;;;12.57;;
16460;SDS011;8341;42.048;24.650;2023-06-22T03:28:04;9.55;;;8.52;;
16460;SDS011;8341;42.048;24.650;2023-06-22T03:30:30;9.60;;;8.60;;
16460;SDS011;8341;42.048;24.650;2023-06-22T03:32:57;10.70;;;9.60;;
16460;SDS011;8341;42.048;24.650;2023-06-22T03:35:24;10.25;;;9.25;;
16460;SDS011;8341;42.048;24.650;2023-06-22T03:37:51;8.82;;;8.02;;
16460;SDS011;8341;42.048;24.650;2023-06-22T03:40:17;8.98;;;8.18;;
16460;SDS011;8341;42.048;24.650;2023-06-22T03:42:45;8.95;;;8.10;;
16460;SDS011;8341;42.048;24.650;2023-06-22T03:45:13;9.30;;;8.40;;
16460;SDS011;8341;42.048;24.650;2023-06-22T03:47:40;9.95;;;8.50;;
16460;SDS011;8341;42.048;24.650;2023-06-22T03:50:08;9.63;;;8.65;;
16460;SDS011;8341;42.048;24.650;2023-06-22T03:52:35;9.07;;;8.18;;
16460;SDS011;8341;42.048;24.650;2023-06-22T03:55:02;10.73;;;9.23;;
16460;SDS011;8341;42.048;24.650;2023-06-22T03:57:29;12.13;;;9.40;;
16460;SDS011;8341;42.048;24.650;2023-06-22T03:59:56;9.63;;;8.75;;
16460;SDS011;8341;42.048;24.650;2023-06-22T04:02:25;9.73;;;8.60;;
16460;SDS011;8341;42.048;24.650;2023-06-22T04:04:52;9.77;;;8.65;;
16460;SDS011;8341;42.048;24.650;2023-06-22T04:07:19;8.77;;;7.90;;
16460;SDS011;8341;42.048;24.650;2023-06-22T04:09:45;9.15;;;8.07;;
16460;SDS011;8341;42.048;24.650;2023-06-22T04:12:12;8.50;;;7.70;;
16460;SDS011;8341;42.048;24.650;2023-06-22T04:14:39;9.07;;;8.18;;
16460;SDS011;8341;42.048;24.650;2023-06-22T04:17:06;10.93;;;7.85;;
16460;SDS011;8341;42.048;24.650;2023-06-22T04:19:34;8.90;;;8.10;;
16460;SDS011;8341;42.048;24.650;2023-06-22T04:22:01;8.75;;;7.85;;
16460;SDS011;8341;42.048;24.650;2023-06-22T04:24:27;8.77;;;7.60;;
16460;SDS011;8341;42.048;24.650;2023-06-22T04:26:54;9.45;;;7.47;;
16460;SDS011;8341;42.048;24.650;2023-06-22T04:29:21;8.13;;;7.43;;
16460;SDS011;8341;42.048;24.650;2023-06-22T04:31:54;8.13;;;7.43;;
16460;SDS011;8341;42.048;24.650;2023-06-22T04:34:22;8.48;;;7.72;;
16460;SDS011;8341;42.048;24.650;2023-06-22T04:36:52;8.18;;;7.43;;
16460;SDS011;8341;42.048;24.650;2023-06-22T04:39:19;8.48;;;7.43;;
16460;SDS011;8341;42.048;24.650;2023-06-22T04:41:46;8.60;;;7.65;;
16460;SDS011;8341;42.048;24.650;2023-06-22T04:44:14;17.33;;;7.63;;
16460;SDS011;8341;42.048;24.650;2023-06-22T04:46:49;8.93;;;7.95;;
16460;SDS011;8341;42.048;24.650;2023-06-22T04:49:19;8.07;;;7.40;;
16460;SDS011;8341;42.048;24.650;2023-06-22T04:51:47;7.95;;;7.35;;
16460;SDS011;8341;42.048;24.650;2023-06-22T04:54:16;8.65;;;7.75;;
16460;SDS011;8341;42.048;24.650;2023-06-22T04:56:43;9.68;;;8.07;;
16460;SDS011;8341;42.048;24.650;2023-06-22T04:59:11;9.35;;;8.13;;
16460;SDS011;8341;42.048;24.650;2023-06-22T05:01:39;8.63;;;7.93;;
16460;SDS011;8341;42.048;24.650;2023-06-22T05:04:06;8.57;;;7.65;;
16460;SDS011;8341;42.048;24.650;2023-06-22T05:06:32;8.98;;;8.02;;
16460;SDS011;8341;42.048;24.650;2023-06-22T05:08:59;8.88;;;7.82;;
16460;SDS011;8341;42.048;24.650;2023-06-22T05:11:29;8.48;;;7.68;;
16460;SDS011;8341;42.048;24.650;2023-06-22T05:13:56;9.32;;;7.63;;
16460;SDS011;8341;42.048;24.650;2023-06-22T05:16:22;8.52;;;7.68;;
16460;SDS011;8341;42.048;24.650;2023-06-22T05:18:51;8.18;;;7.43;;
16460;SDS011;8341;42.048;24.650;2023-06-22T05:21:20;7.72;;;6.90;;
16460;SDS011;8341;42.048;24.650;2023-06-22T05:23:49;8.23;;;7.53;;
16460;SDS011;8341;42.048;24.650;2023-06-22T05:26:15;8.25;;;7.45;;
16460;SDS011;8341;42.048;24.650;2023-06-22T05:28:44;8.73;;;7.90;;
16460;SDS011;8341;42.048;24.650;2023-06-22T05:31:11;9.02;;;8.23;;
16460;SDS011;8341;42.048;24.650;2023-06-22T05:33:38;8.43;;;7.63;;
16460;SDS011;8341;42.048;24.650;2023-06-22T05:36:05;9.18;;;8.18;;
16460;SDS011;8341;42.048;24.650;2023-06-22T05:38:32;9.75;;;8.52;;
16460;SDS011;8341;42.048;24.650;2023-06-22T05:40:59;9.27;;;8.48;;
16460;SDS011;8341;42.048;24.650;2023-06-22T05:43:25;9.30;;;8.40;;
16460;SDS011;8341;42.048;24.650;2023-06-22T05:45:54;9.60;;;8.60;;
16460;SDS011;8341;42.048;24.650;2023-06-22T05:48:20;11.10;;;8.38;;
16460;SDS011;8341;42.048;24.650;2023-06-22T05:50:47;9.75;;;8.82;;
16460;SDS011;8341;42.048;24.650;2023-06-22T05:53:14;9.07;;;8.30;;
16460;SDS011;8341;42.048;24.650;2023-06-22T05:55:41;9.80;;;8.90;;
16460;SDS011;8341;42.048;24.650;2023-06-22T05:58:08;10.80;;;8.50;;
16460;SDS011;8341;42.048;24.650;2023-06-22T06:00:35;10.90;;;9.20;;
16460;SDS011;8341;42.048;24.650;2023-06-22T06:03:03;10.23;;;9.23;;
16460;SDS011;8341;42.048;24.650;2023-06-22T06:05:30;10.20;;;9.30;;
16460;SDS011;8341;42.048;24.650;2023-06-22T06:07:57;10.30;;;9.30;;
16460;SDS011;8341;42.048;24.650;2023-06-22T06:10:25;11.63;;;9.32;;
16460;SDS011;8341;42.048;24.650;2023-06-22T06:12:52;11.18;;;8.73;;
16460;SDS011;8341;42.048;24.650;2023-06-22T06:15:19;10.43;;;8.77;;
16460;SDS011;8341;42.048;24.650;2023-06-22T06:17:46;10.45;;;9.35;;
16460;SDS011;8341;42.048;24.650;2023-06-22T06:20:15;9.60;;;8.60;;
16460;SDS011;8341;42.048;24.650;2023-06-22T06:22:42;9.57;;;8.68;;
16460;SDS011;8341;42.048;24.650;2023-06-22T06:25:09;8.90;;;7.88;;
16460;SDS011;8341;42.048;24.650;2023-06-22T06:27:41;9.65;;;8.65;;
16460;SDS011;8341;42.048;24.650;2023-06-22T06:30:08;9.65;;;8.70;;
16460;SDS011;8341;42.048;24.650;2023-06-22T06:32:36;9.48;;;8.35;;
16460;SDS011;8341;42.048;24.650;2023-06-22T06:35:03;9.35;;;8.45;;
16460;SDS011;8341;42.048;24.650;2023-06-22T06:37:32;9.60;;;8.65;;
16460;SDS011;8341;42.048;24.650;2023-06-22T06:40:01;9.18;;;8.30;;
16460;SDS011;8341;42.048;24.650;2023-06-22T06:42:30;8.98;;;8.18;;
16460;SDS011;8341;42.048;24.650;2023-06-22T06:44:57;10.45;;;7.85;;
16460;SDS011;8341;42.048;24.650;2023-06-22T06:47:24;9.50;;;8.18;;
16460;SDS011;8341;42.048;24.650;2023-06-22T06:49:50;8.68;;;7.90;;
16460;SDS011;8341;42.048;24.650;2023-06-22T06:52:17;8.95;;;8.15;;
16460;SDS011;8341;42.048;24.650;2023-06-22T06:54:46;9.70;;;7.95;;
16460;SDS011;8341;42.048;24.650;2023-06-22T06:57:13;10.68;;;8.15;;
16460;SDS011;8341;42.048;24.650;2023-06-22T06:59:40;8.73;;;7.90;;
16460;SDS011;8341;42.048;24.650;2023-06-22T07:02:07;8.93;;;7.75;;
16460;SDS011;8341;42.048;24.650;2023-06-22T07:04:34;8.68;;;7.72;;
16460;SDS011;8341;42.048;24.650;2023-06-22T07:07:01;7.63;;;7.03;;
16460;SDS011;8341;42.048;24.650;2023-06-22T07:09:28;8.20;;;7.50;;
16460;SDS011;8341;42.048;24.650;2023-06-22T07:11:56;8.38;;;7.55;;
16460;SDS011;8341;42.048;24.650;2023-06-22T07:14:23;8.68;;;7.85;;
16460;SDS011;8341;42.048;24.650;2023-06-22T07:16:50;8.85;;;7.50;;
16460;SDS011;8341;42.048;24.650;2023-06-22T07:19:17;8.57;;;7.05;;
16460;SDS011;8341;42.048;24.650;2023-06-22T07:21:50;7.70;;;7.07;;
16460;SDS011;8341;42.048;24.650;2023-06-22T07:24:18;8.32;;;6.93;;
16460;SDS011;8341;42.048;24.650;2023-06-22T07:26:46;9.02;;;7.05;;
16460;SDS011;8341;42.048;24.650;2023-06-22T07:29:14;8.27;;;7.43;;
16460;SDS011;8341;42.048;24.650;2023-06-22T07:31:41;8.45;;;6.90;;
16460;SDS011;8341;42.048;24.650;2023-06-22T07:34:08;7.10;;;6.50;;
16460;SDS011;8341;42.048;24.650;2023-06-22T07:36:35;7.30;;;6.60;;
16460;SDS011;8341;42.048;24.650;2023-06-22T07:39:02;7.53;;;6.82;;
16460;SDS011;8341;42.048;24.650;2023-06-22T07:41:29;9.05;;;8.23;;
16460;SDS011;8341;42.048;24.650;2023-06-22T07:43:56;7.38;;;6.68;;
16460;SDS011;8341;42.048;24.650;2023-06-22T07:46:24;7.88;;;7.18;;
16460;SDS011;8341;42.048;24.650;2023-06-22T07:48:51;7.93;;;7.22;;
16460;SDS011;8341;42.048;24.650;2023-06-22T07:51:18;9.20;;;7.73;;
16460;SDS011;8341;42.048;24.650;2023-06-22T07:53:44;8.00;;;7.28;;
16460;SDS011;8341;42.048;24.650;2023-06-22T07:56:11;8.30;;;7.43;;
16460;SDS011;8341;42.048;24.650;2023-06-22T07:58:38;8.20;;;7.00;;
16460;SDS011;8341;42.048;24.650;2023-06-22T08:01:05;7.68;;;7.00;;
16460;SDS011;8341;42.048;24.650;2023-06-22T08:03:34;7.97;;;7.28;;
16460;SDS011;8341;42.048;24.650;2023-06-22T08:06:00;7.88;;;7.13;;
16460;SDS011;8341;42.048;24.650;2023-06-22T08:08:27;7.30;;;6.68;;
16460;SDS011;8341;42.048;24.650;2023-06-22T08:10:54;7.78;;;7.05;;
16460;SDS011;8341;42.048;24.650;2023-06-22T08:13:21;7.93;;;7.00;;
16460;SDS011;8341;42.048;24.650;2023-06-22T08:15:47;7.97;;;7.18;;
16460;SDS011;8341;42.048;24.650;2023-06-22T08:18:14;7.78;;;7.05;;
16460;SDS011;8341;42.048;24.650;2023-06-22T08:20:43;7.63;;;6.95;;
16460;SDS011;8341;42.048;24.650;2023-06-22T08:23:10;8.20;;;7.50;;
16460;SDS011;8341;42.048;24.650;2023-06-22T08:25:37;8.15;;;7.20;;
16460;SDS011;8341;42.048;24.650;2023-06-22T08:28:04;9.52;;;7.40;;
16460;SDS011;8341;42.048;24.650;2023-06-22T08:30:31;10.95;;;7.45;;
16460;SDS011;8341;42.048;24.650;2023-06-22T08:32:58;9.57;;;7.57;;
16460;SDS011;8341;42.048;24.650;2023-06-22T08:35:24;9.50;;;7.68;;
16460;SDS011;8341;42.048;24.650;2023-06-22T08:37:53;9.50;;;7.97;;
16460;SDS011;8341;42.048;24.650;2023-06-22T08:40:20;7.75;;;7.15;;
16460;SDS011;8341;42.048;24.650;2023-06-22T08:42:47;7.70;;;7.10;;
16460;SDS011;8341;42.048;24.650;2023-06-22T08:45:14;8.05;;;7.00;;
16460;SDS011;8341;42.048;24.650;2023-06-22T08:47:42;8.10;;;7.45;;
16460;SDS011;8341;42.048;24.650;2023-06-22T08:50:09;8.40;;;7.63;;
16460;SDS011;8341;42.048;24.650;2023-06-22T08:52:36;7.97;;;7.28;;
16460;SDS011;8341;42.048;24.650;2023-06-22T08:55:08;8.52;;;7.50;;
16460;SDS011;8341;42.048;24.650;2023-06-22T08:57:35;7.80;;;7.10;;
16460;SDS011;8341;42.048;24.650;2023-06-22T09:00:04;9.10;;;7.60;;
16460;SDS011;8341;42.048;24.650;2023-06-22T09:02:40;7.40;;;6.75;;
16460;SDS011;8341;42.048;24.650;2023-06-22T09:05:08;8.02;;;7.32;;
16460;SDS011;8341;42.048;24.650;2023-06-22T09:07:35;8.13;;;7.50;;
16460;SDS011;8341;42.048;24.650;2023-06-22T09:10:02;7.65;;;6.88;;
16460;SDS011;8341;42.048;24.650;2023-06-22T09:12:32;7.90;;;7.20;;
16460;SDS011;8341;42.048;24.650;2023-06-22T09:14:59;8.23;;;7.32;;
16460;SDS011;8341;42.048;24.650;2023-06-22T09:17:27;9.80;;;7.72;;
16460;SDS011;8341;42.048;24.650;2023-06-22T09:19:54;8.63;;;7.82;;
16460;SDS011;8341;42.048;24.650;2023-06-22T09:22:21;8.25;;;7.47;;
16460;SDS011;8341;42.048;24.650;2023-06-22T09:24:48;8.77;;;7.13;;
16460;SDS011;8341;42.048;24.650;2023-06-22T09:27:15;7.65;;;6.95;;
16460;SDS011;8341;42.048;24.650;2023-06-22T09:29:43;7.85;;;7.20;;
16460;SDS011;8341;42.048;24.650;2023-06-22T09:32:10;8.07;;;7.28;;
16460;SDS011;8341;42.048;24.650;2023-06-22T09:34:37;8.65;;;6.97;;
16460;SDS011;8341;42.048;24.650;2023-06-22T09:37:04;8.90;;;7.90;;
16460;SDS011;8341;42.048;24.650;2023-06-22T09:39:31;7.80;;;7.10;;
16460;SDS011;8341;42.048;24.650;2023-06-22T09:41:58;8.52;;;7.72;;
16460;SDS011;8341;42.048;24.650;2023-06-22T09:44:25;8.93;;;7.60;;
16460;SDS011;8341;42.048;24.650;2023-06-22T09:46:53;7.90;;;7.20;;
16460;SDS011;8341;42.048;24.650;2023-06-22T09:49:20;7.78;;;7.07;;
16460;SDS011;8341;42.048;24.650;2023-06-22T09:51:47;7.28;;;6.78;;
16460;SDS011;8341;42.048;24.650;2023-06-22T09:54:14;8.27;;;7.50;;
16460;SDS011;8341;42.048;24.650;2023-06-22T09:56:41;8.02;;;7.32;;
16460;SDS011;8341;42.048;24.650;2023-06-22T09:59:08;9.00;;;7.50;;
16460;SDS011;8341;42.048;24.650;2023-06-22T10:01:35;8.02;;;7.30;;
16460;SDS011;8341;42.048;24.650;2023-06-22T10:04:03;8.45;;;7.50;;
16460;SDS011;8341;42.048;24.650;2023-06-22T10:06:30;8.05;;;7.30;;
16460;SDS011;8341;42.048;24.650;2023-06-22T10:08:56;7.97;;;7.35;;
16460;SDS011;8341;42.048;24.650;2023-06-22T10:11:23;8.90;;;7.93;;
16460;SDS011;8341;42.048;24.650;2023-06-22T10:13:54;8.27;;;7.57;;
16460;SDS011;8341;42.048;24.650;2023-06-22T10:16:21;8.25;;;7.45;;
16460;SDS011;8341;42.048;24.650;2023-06-22T10:18:47;8.18;;;7.38;;
16460;SDS011;8341;42.048;24.650;2023-06-22T10:21:15;8.55;;;7.75;;
16460;SDS011;8341;42.048;24.650;2023-06-22T10:23:42;8.98;;;8.07;;
16460;SDS011;8341;42.048;24.650;2023-06-22T10:26:09;8.48;;;7.68;;
16460;SDS011;8341;42.048;24.650;2023-06-22T10:28:36;8.70;;;8.00;;
16460;SDS011;8341;42.048;24.650;2023-06-22T10:31:02;8.10;;;7.43;;
16460;SDS011;8341;42.048;24.650;2023-06-22T10:33:29;8.05;;;7.38;;
16460;SDS011;8341;42.048;24.650;2023-06-22T10:35:56;8.45;;;7.65;;
16460;SDS011;8341;42.048;24.650;2023-06-22T10:38:24;8.10;;;7.40;;
16460;SDS011;8341;42.048;24.650;2023-06-22T10:40:51;8.23;;;7.43;;
16460;SDS011;8341;42.048;24.650;2023-06-22T10:43:17;9.20;;;7.47;;
16460;SDS011;8341;42.048;24.650;2023-06-22T10:45:45;8.65;;;7.47;;
16460;SDS011;8341;42.048;24.650;2023-06-22T10:48:11;8.02;;;7.32;;
16460;SDS011;8341;42.048;24.650;2023-06-22T10:50:38;8.43;;;7.72;;
16460;SDS011;8341;42.048;24.650;2023-06-22T10:53:05;8.48;;;7.75;;
16460;SDS011;8341;42.048;24.650;2023-06-22T10:55:33;7.95;;;7.18;;
16460;SDS011;8341;42.048;24.650;2023-06-22T10:58:00;8.25;;;7.55;;
16460;SDS011;8341;42.048;24.650;2023-06-22T11:00:26;8.30;;;7.50;;
16460;SDS011;8341;42.048;24.650;2023-06-22T11:02:53;8.23;;;7.47;;
16460;SDS011;8341;42.048;24.650;2023-06-22T11:05:20;8.25;;;7.55;;
16460;SDS011;8341;42.048;24.650;2023-06-22T11:07:47;7.90;;;7.28;;
16460;SDS011;8341;42.048;24.650;2023-06-22T11:10:14;8.40;;;7.80;;
16460;SDS011;8341;42.048;24.650;2023-06-22T11:12:43;7.70;;;7.00;;
16460;SDS011;8341;42.048;24.650;2023-06-22T11:15:09;8.20;;;7.50;;
16460;SDS011;8341;42.048;24.650;2023-06-22T11:17:36;8.02;;;7.43;;
16460;SDS011;8341;42.048;24.650;2023-06-22T11:20:03;8.25;;;7.53;;
16460;SDS011;8341;42.048;24.650;2023-06-22T11:22:35;8.60;;;7.90;;
16460;SDS011;8341;42.048;24.650;2023-06-22T11:25:02;8.00;;;7.30;;
16460;SDS011;8341;42.048;24.650;2023-06-22T11:27:29;8.05;;;7.45;;
16460;SDS011;8341;42.048;24.650;2023-06-22T11:29:58;7.90;;;7.20;;
16460;SDS011;8341;42.048;24.650;2023-06-22T11:32:24;7.82;;;7.07;;
16460;SDS011;8341;42.048;24.650;2023-06-22T11:34:51;7.95;;;7.20;;
16460;SDS011;8341;42.048;24.650;2023-06-22T11:37:18;8.50;;;7.80;;
16460;SDS011;8341;42.048;24.650;2023-06-22T11:39:45;8.13;;;7.43;;
16460;SDS011;8341;42.048;24.650;2023-06-22T11:42:11;8.98;;;8.15;;
16460;SDS011;8341;42.048;24.650;2023-06-22T11:44:38;9.32;;;8.52;;
16460;SDS011;8341;42.048;24.650;2023-06-22T11:47:06;8.65;;;8.00;;
16460;SDS011;8341;42.048;24.650;2023-06-22T11:49:33;8.07;;;7.47;;
16460;SDS011;8341;42.048;24.650;2023-06-22T11:52:00;8.98;;;8.18;;
16460;SDS011;8341;42.048;24.650;2023-06-22T11:54:27;8.95;;;8.20;;
16460;SDS011;8341;42.048;24.650;2023-06-22T11:56:53;9.07;;;8.10;;
16460;SDS011;8341;42.048;24.650;2023-06-22T11:59:20;8.25;;;7.60;;
16460;SDS011;8341;42.048;24.650;2023-06-22T12:01:47;8.43;;;7.72;;
16460;SDS011;8341;42.048;24.650;2023-06-22T12:04:17;9.00;;;8.27;;
16460;SDS011;8341;42.048;24.650;2023-06-22T12:06:44;8.85;;;8.15;;
16460;SDS011;8341;42.048;24.650;2023-06-22T12:09:10;9.25;;;8.05;;
16460;SDS011;8341;42.048;24.650;2023-06-22T12:11:38;9.15;;;8.35;;
16460;SDS011;8341;42.048;24.650;2023-06-22T12:14:05;8.95;;;8.25;;
16460;SDS011;8341;42.048;24.650;2023-06-22T12:16:32;8.95;;;8.10;;
16460;SDS011;8341;42.048;24.650;2023-06-22T12:18:59;8.60;;;7.93;;
16460;SDS011;8341;42.048;24.650;2023-06-22T12:21:27;8.70;;;8.00;;
16460;SDS011;8341;42.048;24.650;2023-06-22T12:23:54;8.93;;;8.07;;
16460;SDS011;8341;42.048;24.650;2023-06-22T12:26:21;9.98;;;8.13;;
16460;SDS011;8341;42.048;24.650;2023-06-22T12:28:47;9.75;;;8.85;;
16460;SDS011;8341;42.048;24.650;2023-06-22T12:31:14;9.40;;;8.45;;
16460;SDS011;8341;42.048;24.650;2023-06-22T12:33:41;8.90;;;8.02;;
16460;SDS011;8341;42.048;24.650;2023-06-22T12:36:08;9.15;;;8.35;;
16460;SDS011;8341;42.048;24.650;2023-06-22T12:38:36;8.20;;;7.50;;
16460;SDS011;8341;42.048;24.650;2023-06-22T12:41:03;9.30;;;8.50;;
16460;SDS011;8341;42.048;24.650;2023-06-22T12:43:30;9.05;;;8.25;;
16460;SDS011;8341;42.048;24.650;2023-06-22T12:45:56;9.07;;;8.32;;
16460;SDS011;8341;42.048;24.650;2023-06-22T12:48:24;9.02;;;8.32;;
16460;SDS011;8341;42.048;24.650;2023-06-22T12:50:52;9.02;;;8.13;;
16460;SDS011;8341;42.048;24.650;2023-06-22T12:53:18;9.05;;;8.35;;
16460;SDS011;8341;42.048;24.650;2023-06-22T12:55:49;8.52;;;7.72;;
16460;SDS011;8341;42.048;24.650;2023-06-22T12:58:15;9.98;;;8.90;;
16460;SDS011;8341;42.048;24.650;2023-06-22T13:00:42;8.98;;;8.18;;
16460;SDS011;8341;42.048;24.650;2023-06-22T13:03:09;8.88;;;8.15;;
16460;SDS011;8341;42.048;24.650;2023-06-22T13:05:36;9.45;;;8.65;;
16460;SDS011;8341;42.048;24.650;2023-06-22T13:08:03;9.50;;;8.70;;
16460;SDS011;8341;42.048;24.650;2023-06-22T13:10:30;8.88;;;8.15;;
16460;SDS011;8341;42.048;24.650;2023-06-22T13:12:58;9.10;;;8.30;;
16460;SDS011;8341;42.048;24.650;2023-06-22T13:15:26;9.90;;;8.90;;
16460;SDS011;8341;42.048;24.650;2023-06-22T13:17:53;8.98;;;8.18;;
16460;SDS011;8341;42.048;24.650;2023-06-22T13:20:20;9.70;;;8.80;;
16460;SDS011;8341;42.048;24.650;2023-06-22T13:22:46;10.52;;;9.05;;
16460;SDS011;8341;42.048;24.650;2023-06-22T13:25:13;9.63;;;8.82;;
16460;SDS011;8341;42.048;24.650;2023-06-22T13:27:44;9.43;;;8.63;;
16460;SDS011;8341;42.048;24.650;2023-06-22T13:30:12;9.55;;;8.75;;
16460;SDS011;8341;42.048;24.650;2023-06-22T13:32:40;11.05;;;9.15;;
16460;SDS011;8341;42.048;24.650;2023-06-22T13:35:08;9.70;;;8.70;;
16460;SDS011;8341;42.048;24.650;2023-06-22T13:37:35;10.88;;;8.52;;
16460;SDS011;8341;42.048;24.650;2023-06-22T13:40:02;10.10;;;9.27;;
16460;SDS011;8341;42.048;24.650;2023-06-22T13:42:31;11.23;;;10.15;;
16460;SDS011;8341;42.048;24.650;2023-06-22T13:44:58;10.18;;;9.38;;
16460;SDS011;8341;42.048;24.650;2023-06-22T13:47:26;9.50;;;8.70;;
16460;SDS011;8341;42.048;24.650;2023-06-22T13:49:53;12.73;;;9.45;;
16460;SDS011;8341;42.048;24.650;2023-06-22T13:52:20;10.32;;;8.50;;
16460;SDS011;8341;42.048;24.650;2023-06-22T13:54:47;10.10;;;9.20;;
16460;SDS011;8341;42.048;24.650;2023-06-22T13:57:13;13.98;;;9.68;;
16460;SDS011;8341;42.048;24.650;2023-06-22T13:59:40;11.75;;;10.13;;
16460;SDS011;8341;42.048;24.650;2023-06-22T14:02:07;10.00;;;9.10;;
16460;SDS011;8341;42.048;24.650;2023-06-22T14:04:35;9.18;;;8.48;;
16460;SDS011;8341;42.048;24.650;2023-06-22T14:07:02;10.23;;;9.30;;
16460;SDS011;8341;42.048;24.650;2023-06-22T14:09:29;10.30;;;9.40;;
16460;SDS011;8341;42.048;24.650;2023-06-22T14:11:56;13.23;;;9.45;;
16460;SDS011;8341;42.048;24.650;2023-06-22T14:14:23;11.25;;;9.55;;
16460;SDS011;8341;42.048;24.650;2023-06-22T14:16:49;9.68;;;8.88;;
16460;SDS011;8341;42.048;24.650;2023-06-22T14:19:17;9.95;;;9.00;;
16460;SDS011;8341;42.048;24.650;2023-06-22T14:21:45;32.55;;;12.52;;
16460;SDS011;8341;42.048;24.650;2023-06-22T14:24:12;15.05;;;11.35;;
16460;SDS011;8341;42.048;24.650;2023-06-22T14:26:39;10.07;;;9.00;;
16460;SDS011;8341;42.048;24.650;2023-06-22T14:29:06;11.00;;;9.93;;
16460;SDS011;8341;42.048;24.650;2023-06-22T14:31:32;15.75;;;10.80;;
16460;SDS011;8341;42.048;24.650;2023-06-22T14:33:59;14.40;;;10.70;;
16460;SDS011;8341;42.048;24.650;2023-06-22T14:36:27;11.80;;;10.65;;
16460;SDS011;8341;42.048;24.650;2023-06-22T14:38:55;11.88;;;10.77;;
16460;SDS011;8341;42.048;24.650;2023-06-22T14:41:22;11.05;;;9.88;;
16460;SDS011;8341;42.048;24.650;2023-06-22T14:43:49;11.10;;;9.50;;
16460;SDS011;8341;42.048;24.650;2023-06-22T14:46:17;14.20;;;10.27;;
16460;SDS011;8341;42.048;24.650;2023-06-22T14:48:45;14.20;;;10.70;;